createdAt,value
2022-09-01T00:00:16.777Z,83.8
2022-09-01T00:01:17.246Z,83.7
2022-09-01T00:02:16.926Z,83.8
2022-09-01T00:03:17.378Z,83.8
2022-09-01T00:04:16.868Z,83.9
2022-09-01T00:05:17.306Z,83.8
2022-09-01T00:06:16.718Z,83.9
2022-09-01T00:07:17.140Z,83.8
2022-09-01T00:08:18.966Z,83.9
2022-09-01T00:09:16.455Z,84.0
2022-09-01T00:10:16.906Z,83.9
2022-09-01T00:11:17.353Z,83.8
2022-09-01T00:12:17.252Z,83.8
2022-09-01T00:13:16.710Z,83.9
2022-09-01T00:14:29.330Z,84.0
2022-09-01T00:15:16.482Z,83.8
2022-09-01T00:16:17.092Z,83.8
2022-09-01T00:17:16.594Z,83.8
2022-09-01T00:18:17.106Z,83.8
2022-09-01T00:19:16.542Z,83.8
2022-09-01T00:20:21.007Z,84.0
2022-09-01T00:21:16.508Z,84.0
2022-09-01T00:22:16.813Z,83.8
2022-09-01T00:23:17.277Z,83.9
2022-09-01T00:24:16.690Z,84.1
2022-09-01T00:25:17.157Z,84.0
2022-09-01T00:26:16.594Z,84.0
2022-09-01T00:27:18.031Z,84.0
2022-09-01T00:28:17.463Z,84.1
2022-09-01T00:29:16.930Z,84.0
2022-09-01T00:30:17.395Z,83.9
2022-09-01T00:31:17.130Z,84.0
2022-09-01T00:32:16.740Z,84.1
2022-09-01T00:33:17.166Z,84.1
2022-09-01T00:34:17.152Z,84.1
2022-09-01T00:35:16.576Z,84.3
2022-09-01T00:36:17.064Z,84.3
2022-09-01T00:37:16.492Z,84.3
2022-09-01T00:38:17.050Z,84.2
2022-09-01T00:39:16.490Z,84.2
2022-09-01T00:40:17.158Z,84.4
2022-09-01T00:41:16.723Z,84.5
2022-09-01T00:42:16.958Z,84.4
2022-09-01T00:43:17.450Z,84.7
2022-09-01T00:44:17.881Z,84.4
2022-09-01T00:45:17.443Z,84.4
2022-09-01T00:46:20.543Z,84.5
2022-09-01T00:47:17.361Z,84.7
2022-09-01T00:48:16.857Z,84.7
2022-09-01T00:49:17.385Z,84.7
2022-09-01T00:50:16.833Z,84.8
2022-09-01T00:51:17.262Z,84.8
2022-09-01T00:52:17.328Z,84.8
2022-09-01T00:53:16.742Z,84.9
2022-09-01T00:54:17.151Z,84.8
2022-09-01T00:55:16.603Z,84.8
2022-09-01T00:56:17.093Z,84.8
2022-09-01T00:57:16.559Z,84.8
2022-09-01T00:58:20.296Z,85.0
2022-09-01T00:59:16.812Z,85.0
2022-09-01T01:00:17.280Z,85.0
2022-09-01T01:01:16.837Z,85.1
2022-09-01T01:02:17.485Z,85.4
2022-09-01T01:03:16.960Z,85.4
2022-09-01T01:04:17.527Z,85.4
2022-09-01T01:05:16.954Z,85.5
2022-09-01T01:06:17.383Z,85.5
2022-09-01T01:07:16.796Z,85.7
2022-09-01T01:08:17.364Z,85.6
2022-09-01T01:09:16.816Z,85.8
2022-09-01T01:10:17.272Z,85.8
2022-09-01T01:11:17.312Z,85.9
2022-09-01T01:12:17.255Z,86.1
2022-09-01T01:13:16.691Z,86.1
2022-09-01T01:14:17.147Z,86.2
2022-09-01T01:15:16.604Z,86.2
2022-09-01T01:16:17.174Z,86.3
2022-09-01T01:17:16.611Z,86.3
2022-09-01T01:18:23.838Z,86.4
2022-09-01T01:19:17.353Z,86.3
2022-09-01T01:20:16.769Z,86.3
2022-09-01T01:21:17.189Z,86.4
2022-09-01T01:22:16.937Z,86.4
2022-09-01T01:23:17.369Z,86.4
2022-09-01T01:24:16.820Z,86.4
2022-09-01T01:25:19.103Z,86.6
2022-09-01T01:26:16.749Z,86.6
2022-09-01T01:27:17.216Z,86.6
2022-09-01T01:28:16.799Z,86.6
2022-09-01T01:29:17.332Z,86.6
2022-09-01T01:30:16.783Z,86.7
2022-09-01T01:31:17.641Z,86.7
2022-09-01T01:32:16.824Z,86.7
2022-09-01T01:33:17.373Z,86.9
2022-09-01T01:34:16.764Z,86.9
2022-09-01T01:35:17.194Z,86.9
2022-09-01T01:36:16.617Z,87.1
2022-09-01T01:37:17.052Z,87.2
2022-09-01T01:38:16.598Z,87.1
2022-09-01T01:39:17.103Z,87.0
2022-09-01T01:40:16.614Z,87.0
2022-09-01T01:41:17.108Z,87.1
2022-09-01T01:42:16.532Z,87.2
2022-09-01T01:43:17.000Z,87.2
2022-09-01T01:44:16.477Z,87.3
2022-09-01T01:45:16.922Z,87.3
2022-09-01T01:46:17.495Z,87.3
2022-09-01T01:47:16.938Z,87.2
2022-09-01T01:48:17.370Z,87.4
2022-09-01T01:49:16.779Z,87.2
2022-09-01T01:50:17.266Z,87.2
2022-09-01T01:51:16.694Z,87.2
2022-09-01T01:52:16.457Z,87.3
2022-09-01T01:53:16.910Z,87.3
2022-09-01T01:54:17.399Z,87.2
2022-09-01T01:55:16.883Z,87.1
2022-09-01T01:56:17.334Z,87.2
2022-09-01T01:57:16.791Z,87.3
2022-09-01T01:58:17.279Z,87.3
2022-09-01T01:59:16.731Z,87.3
2022-09-01T02:00:17.357Z,87.3
2022-09-01T02:01:16.575Z,87.3
2022-09-01T02:02:17.044Z,87.5
2022-09-01T02:03:16.510Z,87.5
2022-09-01T02:04:16.923Z,87.5
2022-09-01T02:05:17.352Z,87.5
2022-09-01T02:06:16.795Z,87.5
2022-09-01T02:07:17.222Z,87.4
2022-09-01T02:08:16.841Z,87.4
2022-09-01T02:09:17.642Z,87.3
2022-09-01T02:10:17.091Z,87.4
2022-09-01T02:11:16.542Z,87.4
2022-09-01T02:12:17.293Z,87.5
2022-09-01T02:13:16.755Z,87.6
2022-09-01T02:14:17.202Z,87.6
2022-09-01T02:15:16.630Z,87.6
2022-09-01T02:16:17.295Z,87.7
2022-09-01T02:17:16.764Z,87.8
2022-09-01T02:18:17.292Z,88.2
2022-09-01T02:19:16.734Z,88.3
2022-09-01T02:20:17.168Z,88.2
2022-09-01T02:21:18.684Z,88.2
2022-09-01T02:22:17.375Z,88.1
2022-09-01T02:23:16.839Z,88.0
2022-09-01T02:24:17.298Z,88.3
2022-09-01T02:25:16.768Z,88.2
2022-09-01T02:26:18.149Z,88.2
2022-09-01T02:27:16.664Z,88.2
2022-09-01T02:28:17.202Z,88.4
2022-09-01T02:29:16.685Z,88.4
2022-09-01T02:30:17.122Z,88.4
2022-09-01T02:31:16.713Z,88.5
2022-09-01T02:32:17.127Z,88.6
2022-09-01T02:33:16.552Z,88.3
2022-09-01T02:34:16.967Z,88.5
2022-09-01T02:35:16.479Z,88.5
2022-09-01T02:36:16.927Z,88.7
2022-09-01T02:37:17.366Z,88.9
2022-09-01T02:38:16.852Z,88.9
2022-09-01T02:39:17.324Z,89.0
2022-09-01T02:40:16.856Z,89.1
2022-09-01T02:41:17.996Z,89.1
2022-09-01T02:42:16.636Z,89.1
2022-09-01T02:43:17.118Z,89.0
2022-09-01T02:44:16.595Z,89.1
2022-09-01T02:45:17.598Z,89.2
2022-09-01T02:46:18.311Z,89.0
2022-09-01T02:47:16.767Z,89.1
2022-09-01T02:48:18.845Z,89.2
2022-09-01T02:49:17.429Z,89.2
2022-09-01T02:50:16.854Z,89.3
2022-09-01T02:51:17.298Z,89.3
2022-09-01T02:52:16.891Z,89.3
2022-09-01T02:53:17.353Z,89.5
2022-09-01T02:54:16.858Z,89.4
2022-09-01T02:55:17.308Z,89.5
2022-09-01T02:56:16.767Z,89.4
2022-09-01T02:57:17.232Z,89.5
2022-09-01T02:58:16.688Z,89.4
2022-09-01T02:59:16.683Z,89.3
2022-09-01T03:00:17.120Z,89.3
2022-09-01T03:01:16.718Z,89.3
2022-09-01T03:02:17.332Z,89.4
2022-09-01T03:03:16.795Z,89.5
2022-09-01T03:04:17.383Z,89.5
2022-09-01T03:05:16.836Z,89.5
2022-09-01T03:06:17.290Z,89.7
2022-09-01T03:07:16.727Z,89.8
2022-09-01T03:08:17.341Z,89.8
2022-09-01T03:09:16.820Z,89.8
2022-09-01T03:10:17.239Z,89.9
2022-09-01T03:11:16.654Z,89.9
2022-09-01T03:12:16.558Z,90.2
2022-09-01T03:13:16.999Z,90.1
2022-09-01T03:14:16.519Z,90.2
2022-09-01T03:15:16.974Z,90.2
2022-09-01T03:16:16.595Z,90.2
2022-09-01T03:17:17.092Z,90.2
2022-09-01T03:18:16.657Z,90.3
2022-09-01T03:19:17.137Z,90.4
2022-09-01T03:20:16.583Z,90.7
2022-09-01T03:21:17.038Z,90.7
2022-09-01T03:22:16.454Z,90.8
2022-09-01T03:23:19.675Z,90.8
2022-09-01T03:24:17.142Z,90.9
2022-09-01T03:25:16.561Z,91.0
2022-09-01T03:26:16.989Z,91.0
2022-09-01T03:27:16.405Z,91.0
2022-09-01T03:28:17.038Z,91.0
2022-09-01T03:29:16.574Z,91.0
2022-09-01T03:30:17.756Z,91.1
2022-09-01T03:31:17.410Z,91.1
2022-09-01T03:32:16.836Z,91.2
2022-09-01T03:33:17.351Z,91.0
2022-09-01T03:34:16.814Z,91.0
2022-09-01T03:35:17.303Z,91.0
2022-09-01T03:36:16.753Z,91.0
2022-09-01T03:37:17.170Z,91.0
2022-09-01T03:38:16.696Z,91.1
2022-09-01T03:39:17.163Z,91.2
2022-09-01T03:40:16.625Z,91.3
2022-09-01T03:41:17.089Z,91.1
2022-09-01T03:42:16.858Z,91.1
2022-09-01T03:43:16.844Z,91.2
2022-09-01T03:44:17.337Z,91.2
2022-09-01T03:45:16.833Z,91.3
2022-09-01T03:46:17.441Z,91.4
2022-09-01T03:47:16.925Z,91.3
2022-09-01T03:48:17.380Z,91.4
2022-09-01T03:49:16.858Z,91.6
2022-09-01T03:50:17.317Z,91.6
2022-09-01T03:51:16.733Z,91.7
2022-09-01T03:52:16.659Z,91.7
2022-09-01T03:53:17.103Z,91.8
2022-09-01T03:54:16.530Z,92.0
2022-09-01T03:55:16.962Z,92.1
2022-09-01T03:56:17.717Z,92.2
2022-09-01T03:57:17.140Z,92.3
2022-09-01T03:58:16.674Z,92.3
2022-09-01T03:59:17.669Z,92.1
2022-09-01T04:00:18.444Z,92.0
2022-09-01T04:01:17.070Z,92.0
2022-09-01T04:02:17.302Z,92.2
2022-09-01T04:03:17.805Z,92.4
2022-09-01T04:04:17.288Z,92.2
2022-09-01T04:05:16.735Z,92.2
2022-09-01T04:06:17.161Z,92.3
2022-09-01T04:07:19.535Z,92.4
2022-09-01T04:08:17.013Z,92.5
2022-09-01T04:09:16.545Z,92.5
2022-09-01T04:10:17.005Z,92.5
2022-09-01T04:11:16.458Z,92.6
2022-09-01T04:12:16.923Z,92.6
2022-09-01T04:13:17.377Z,92.5
2022-09-01T04:14:16.862Z,92.7
2022-09-01T04:15:17.623Z,92.6
2022-09-01T04:16:17.278Z,92.6
2022-09-01T04:17:16.798Z,92.7
2022-09-01T04:18:17.258Z,92.4
2022-09-01T04:19:16.741Z,92.4
2022-09-01T04:20:21.018Z,92.3
2022-09-01T04:21:16.451Z,92.4
2022-09-01T04:22:17.326Z,92.3
2022-09-01T04:23:16.763Z,92.3
2022-09-01T04:24:17.211Z,92.1
2022-09-01T04:25:16.638Z,92.0
2022-09-01T04:26:17.093Z,92.0
2022-09-01T04:27:16.537Z,92.0
2022-09-01T04:28:17.040Z,92.1
2022-09-01T04:29:16.532Z,92.2
2022-09-01T04:30:16.991Z,92.2
2022-09-01T04:31:16.534Z,92.3
2022-09-01T04:32:16.948Z,92.2
2022-09-01T04:33:17.409Z,91.9
2022-09-01T04:34:16.824Z,91.7
2022-09-01T04:35:17.504Z,91.8
2022-09-01T04:36:16.933Z,91.9
2022-09-01T04:37:17.342Z,91.9
2022-09-01T04:38:16.857Z,91.9
2022-09-01T04:39:17.326Z,91.9
2022-09-01T04:40:16.840Z,91.9
2022-09-01T04:41:17.297Z,91.7
2022-09-01T04:42:16.537Z,91.9
2022-09-01T04:43:16.993Z,91.8
2022-09-01T04:44:16.449Z,91.6
2022-09-01T04:45:20.926Z,91.7
2022-09-01T04:46:17.554Z,91.8
2022-09-01T04:47:17.026Z,91.5
2022-09-01T04:48:16.650Z,91.5
2022-09-01T04:49:17.118Z,91.5
2022-09-01T04:50:16.539Z,91.6
2022-09-01T04:51:16.975Z,91.6
2022-09-01T04:52:16.484Z,91.6
2022-09-01T04:53:16.943Z,91.5
2022-09-01T04:54:17.362Z,91.5
2022-09-01T04:55:16.817Z,91.5
2022-09-01T04:56:17.252Z,91.3
2022-09-01T04:57:16.671Z,91.5
2022-09-01T04:58:17.324Z,91.5
2022-09-01T04:59:16.793Z,91.7
2022-09-01T05:00:17.258Z,91.9
2022-09-01T05:01:16.900Z,91.9
2022-09-01T05:02:16.691Z,91.9
2022-09-01T05:03:17.217Z,92.0
2022-09-01T05:04:16.635Z,91.9
2022-09-01T05:05:17.043Z,91.9
2022-09-01T05:06:16.471Z,91.8
2022-09-01T05:07:16.915Z,91.5
2022-09-01T05:08:24.654Z,91.4
2022-09-01T05:09:17.234Z,91.3
2022-09-01T05:10:16.667Z,90.7
2022-09-01T05:11:17.122Z,90.6
2022-09-01T05:12:16.636Z,90.4
2022-09-01T05:13:17.077Z,90.4
2022-09-01T05:14:16.537Z,90.6
2022-09-01T05:15:17.002Z,90.5
2022-09-01T05:16:20.358Z,90.3
2022-09-01T05:17:17.267Z,90.4
2022-09-01T05:18:16.743Z,90.4
2022-09-01T05:19:17.185Z,90.3
2022-09-01T05:20:17.498Z,90.4
2022-09-01T05:21:16.982Z,90.3
2022-09-01T05:22:16.726Z,90.2
2022-09-01T05:23:17.138Z,90.0
2022-09-01T05:24:16.603Z,89.7
2022-09-01T05:25:17.043Z,89.3
2022-09-01T05:26:16.496Z,89.3
2022-09-01T05:27:16.988Z,89.3
2022-09-01T05:28:16.544Z,89.1
2022-09-01T05:29:17.037Z,89.0
2022-09-01T05:30:16.494Z,88.9
2022-09-01T05:31:17.028Z,88.9
2022-09-01T05:32:16.630Z,88.9
2022-09-01T05:33:21.985Z,88.6
2022-09-01T05:34:16.533Z,88.6
2022-09-01T05:35:16.969Z,88.6
2022-09-01T05:36:17.415Z,88.1
2022-09-01T05:37:16.831Z,88.1
2022-09-01T05:38:17.287Z,87.8
2022-09-01T05:39:16.728Z,87.5
2022-09-01T05:40:17.398Z,87.4
2022-09-01T05:41:16.868Z,87.0
2022-09-01T05:42:17.216Z,87.1
2022-09-01T05:43:16.686Z,86.9
2022-09-01T05:44:17.130Z,86.9
2022-09-01T05:45:16.575Z,86.7
2022-09-01T05:46:17.235Z,86.5
2022-09-01T05:47:21.379Z,86.5
2022-09-01T05:48:16.816Z,86.7
2022-09-01T05:49:17.227Z,86.4
2022-09-01T05:50:16.675Z,86.4
2022-09-01T05:51:43.676Z,86.3
2022-09-01T05:52:17.035Z,86.2
2022-09-01T05:53:16.463Z,85.7
2022-09-01T05:54:17.213Z,85.9
2022-09-01T05:55:16.671Z,85.6
2022-09-01T05:56:16.847Z,85.4
2022-09-01T05:57:34.520Z,85.3
2022-09-01T05:58:16.561Z,84.9
2022-09-01T05:59:26.319Z,85.0
2022-09-01T06:00:16.867Z,84.7
2022-09-01T06:01:17.339Z,84.4
2022-09-01T06:02:16.967Z,84.4
2022-09-01T06:03:16.873Z,84.2
2022-09-01T06:04:17.327Z,84.2
2022-09-01T06:05:16.754Z,83.8
2022-09-01T06:06:17.215Z,83.7
2022-09-01T06:07:16.883Z,83.5
2022-09-01T06:08:17.607Z,83.7
2022-09-01T06:09:17.097Z,83.5
2022-09-01T06:10:16.548Z,83.5
2022-09-01T06:11:16.993Z,83.4
2022-09-01T06:12:16.823Z,83.2
2022-09-01T06:13:17.470Z,83.1
2022-09-01T06:14:16.927Z,82.7
2022-09-01T06:15:17.382Z,82.3
2022-09-01T06:16:17.032Z,82.1
2022-09-01T06:17:17.038Z,81.5
2022-09-01T06:18:16.455Z,81.3
2022-09-01T06:19:16.909Z,81.2
2022-09-01T06:20:17.796Z,81.5
2022-09-01T06:21:17.218Z,81.3
2022-09-01T06:22:17.244Z,81.6
2022-09-01T06:23:16.780Z,81.6
2022-09-01T06:24:17.286Z,81.3
2022-09-01T06:25:16.735Z,80.7
2022-09-01T06:26:17.213Z,80.6
2022-09-01T06:27:16.707Z,80.5
2022-09-01T06:28:17.173Z,79.8
2022-09-01T06:29:17.849Z,79.4
2022-09-01T06:30:24.015Z,79.4
2022-09-01T06:31:17.073Z,79.6
2022-09-01T06:32:16.726Z,79.3
2022-09-01T06:33:17.183Z,78.7
2022-09-01T06:34:16.606Z,78.1
2022-09-01T06:35:17.038Z,78.3
2022-09-01T06:36:16.483Z,78.1
2022-09-01T06:37:16.894Z,77.8
2022-09-01T06:38:17.340Z,78.1
2022-09-01T06:39:16.788Z,77.3
2022-09-01T06:40:17.534Z,77.1
2022-09-01T06:41:17.015Z,76.1
2022-09-01T06:42:17.053Z,76.2
2022-09-01T06:43:16.788Z,77.2
2022-09-01T06:44:17.273Z,76.3
2022-09-01T06:45:16.738Z,76.3
2022-09-01T06:46:17.274Z,76.3
2022-09-01T06:47:16.755Z,75.6
2022-09-01T06:48:17.171Z,75.7
2022-09-01T06:49:16.607Z,75.5
2022-09-01T06:51:21.431Z,75.4
2022-09-01T06:52:17.256Z,74.7
2022-09-01T06:53:32.670Z,74.2
2022-09-01T06:54:21.301Z,74.1
2022-09-01T06:55:16.849Z,74.3
2022-09-01T06:56:17.311Z,74.9
2022-09-01T06:58:21.757Z,75.2
2022-09-01T06:59:16.896Z,74.7
2022-09-01T07:00:18.688Z,74.3
2022-09-01T07:01:16.959Z,74.4
2022-09-01T07:02:18.010Z,75.0
2022-09-01T07:03:16.707Z,75.9
2022-09-01T07:04:17.189Z,76.7
2022-09-01T07:06:58.959Z,75.2
2022-09-01T07:08:04.643Z,75.3
2022-09-01T07:08:17.357Z,75.0
2022-09-01T07:09:37.821Z,74.5
2022-09-01T07:10:23.241Z,75.1
2022-09-01T07:12:26.827Z,74.1
2022-09-01T07:13:17.187Z,72.8
2022-09-01T07:14:16.722Z,72.6
2022-09-01T07:16:32.269Z,71.3
2022-09-01T07:17:24.115Z,71.1
2022-09-01T07:18:16.697Z,70.6
2022-09-01T07:19:17.151Z,70.0
2022-09-01T07:21:41.645Z,70.2
2022-09-01T07:22:37.742Z,70.6
2022-09-01T07:23:16.907Z,70.0
2022-09-01T07:24:17.382Z,69.4
2022-09-01T07:25:17.046Z,68.7
2022-09-01T07:27:18.645Z,67.6
2022-09-01T07:28:16.788Z,68.0
2022-09-01T07:29:17.241Z,67.9
2022-09-01T07:30:16.669Z,67.9
2022-09-01T07:31:49.962Z,69.3
2022-09-01T07:32:47.414Z,70.2
2022-09-01T07:33:44.541Z,70.8
2022-09-01T07:34:40.104Z,72.1
2022-09-01T07:35:16.656Z,71.8
2022-09-01T07:36:29.391Z,71.8
2022-09-01T07:39:47.202Z,68.8
2022-09-01T07:39:49.472Z,68.5
2022-09-01T07:42:58.218Z,69.8
2022-09-01T07:42:58.526Z,67.9
2022-09-01T07:43:17.150Z,70.1
2022-09-01T07:44:16.575Z,69.9
2022-09-01T07:45:29.085Z,67.6
2022-09-01T07:46:37.904Z,66.6
2022-09-01T07:47:51.839Z,65.3
2022-09-01T07:49:01.093Z,64.6
2022-09-01T07:49:30.360Z,64.0
2022-09-01T07:50:39.635Z,63.0
2022-09-01T07:51:37.087Z,61.9
2022-09-01T07:52:22.867Z,63.4
2022-09-01T07:53:17.378Z,65.7
2022-09-01T07:54:16.856Z,64.7
2022-09-01T07:55:17.358Z,64.8
2022-09-01T07:56:16.827Z,66.5
2022-09-01T07:57:17.286Z,66.0
2022-09-01T07:58:16.724Z,65.9
2022-09-01T07:59:17.149Z,65.8
2022-09-01T08:00:16.564Z,66.6
2022-09-01T08:01:17.085Z,68.1
2022-09-01T08:02:16.843Z,67.3
2022-09-01T08:03:17.460Z,67.0
2022-09-01T08:04:16.916Z,65.6
2022-09-01T08:05:17.568Z,65.3
2022-09-01T08:06:17.054Z,64.1
2022-09-01T08:07:16.515Z,64.3
2022-09-01T08:08:23.766Z,64.3
2022-09-01T08:10:20.539Z,65.1
2022-09-01T08:11:17.031Z,65.1
2022-09-01T08:12:17.447Z,64.8
2022-09-01T08:13:22.292Z,64.7
2022-09-01T08:14:18.441Z,64.4
2022-09-01T08:16:06.244Z,63.6
2022-09-01T08:16:18.705Z,63.4
2022-09-01T08:17:34.012Z,63.5
2022-09-01T08:18:16.977Z,62.6
2022-09-01T08:19:16.996Z,62.0
2022-09-01T08:20:16.439Z,62.0
2022-09-01T08:21:16.906Z,61.8
2022-09-01T08:22:17.350Z,61.3
2022-09-01T08:23:16.821Z,61.3
2022-09-01T08:24:17.301Z,61.6
2022-09-01T08:25:18.288Z,62.6
2022-09-01T08:26:17.163Z,61.7
2022-09-01T08:27:16.611Z,60.8
2022-09-01T08:28:26.309Z,61.0
2022-09-01T08:29:17.063Z,60.3
2022-09-01T08:30:16.644Z,59.1
2022-09-01T08:31:17.206Z,58.2
2022-09-01T08:32:16.913Z,58.2
2022-09-01T08:33:17.355Z,57.7
2022-09-01T08:34:16.768Z,57.6
2022-09-01T08:35:17.231Z,57.7
2022-09-01T08:36:23.899Z,56.0
2022-09-01T08:37:17.271Z,54.8
2022-09-01T08:38:16.754Z,55.1
2022-09-01T08:39:17.208Z,56.5
2022-09-01T08:40:16.873Z,56.5
2022-09-01T08:41:17.384Z,55.6
2022-09-01T08:42:16.636Z,55.1
2022-09-01T08:43:17.288Z,53.7
2022-09-01T08:44:16.755Z,54.4
2022-09-01T08:45:17.180Z,56.5
2022-09-01T08:46:16.753Z,56.4
2022-09-01T08:47:27.808Z,59.3
2022-09-01T08:49:16.367Z,58.8
2022-09-01T08:49:28.384Z,60.2
2022-09-01T08:50:17.195Z,60.0
2022-09-01T08:51:20.899Z,58.7
2022-09-01T08:52:16.664Z,58.4
2022-09-01T08:53:17.145Z,60.9
2022-09-01T08:54:29.591Z,60.6
2022-09-01T08:55:17.271Z,59.3
2022-09-01T08:56:16.743Z,56.6
2022-09-01T08:57:17.218Z,54.8
2022-09-01T08:58:16.880Z,54.9
2022-09-01T08:59:17.291Z,55.9
2022-09-01T09:00:17.156Z,57.1
2022-09-01T09:01:17.968Z,56.1
2022-09-01T09:02:16.792Z,55.2
2022-09-01T09:03:17.291Z,55.0
2022-09-01T09:04:16.766Z,55.6
2022-09-01T09:05:17.220Z,55.6
2022-09-01T09:06:16.678Z,55.5
2022-09-01T09:07:17.147Z,55.3
2022-09-01T09:08:16.608Z,54.3
2022-09-01T09:09:17.074Z,53.0
2022-09-01T09:10:16.588Z,52.6
2022-09-01T09:11:17.013Z,52.5
2022-09-01T09:12:16.706Z,51.7
2022-09-01T09:13:17.333Z,54.2
2022-09-01T09:14:16.785Z,53.7
2022-09-01T09:15:17.324Z,52.6
2022-09-01T09:16:16.871Z,53.0
2022-09-01T09:17:17.364Z,54.7
2022-09-01T09:18:38.902Z,54.7
2022-09-01T09:19:17.013Z,54.2
2022-09-01T09:20:16.657Z,53.7
2022-09-01T09:21:17.074Z,54.6
2022-09-01T09:22:17.286Z,55.2
2022-09-01T09:23:17.373Z,54.9
2022-09-01T09:24:22.803Z,56.6
2022-09-01T09:25:19.753Z,57.3
2022-09-01T09:26:22.538Z,56.4
2022-09-01T09:27:16.987Z,53.6
2022-09-01T09:28:16.483Z,53.9
2022-09-01T09:29:16.940Z,53.6
2022-09-01T09:30:17.409Z,52.7
2022-09-01T09:31:19.384Z,51.4
2022-09-01T09:32:45.004Z,50.4
2022-09-01T09:33:48.493Z,51.1
2022-09-01T09:34:16.507Z,51.9
2022-09-01T09:35:16.923Z,51.8
2022-09-01T09:36:17.336Z,52.6
2022-09-01T09:37:16.756Z,51.2
2022-09-01T09:38:17.169Z,50.2
2022-09-01T09:39:17.049Z,50.6
2022-09-01T09:40:18.446Z,51.6
2022-09-01T09:41:25.540Z,50.2
2022-09-01T09:42:16.742Z,50.6
2022-09-01T09:43:17.990Z,49.9
2022-09-01T09:44:17.158Z,51.0
2022-09-01T09:45:16.596Z,51.4
2022-09-01T09:46:25.599Z,50.7
2022-09-01T09:47:42.992Z,50.1
2022-09-01T09:48:16.620Z,50.8
2022-09-01T09:49:17.067Z,52.6
2022-09-01T09:50:16.480Z,53.4
2022-09-01T09:51:16.910Z,53.1
2022-09-01T09:52:16.954Z,53.3
2022-09-01T09:53:17.455Z,54.2
2022-09-01T09:54:16.935Z,54.2
2022-09-01T09:55:17.409Z,53.4
2022-09-01T09:56:16.869Z,52.1
2022-09-01T09:57:17.353Z,52.4
2022-09-01T09:58:16.766Z,52.9
2022-09-01T09:59:46.161Z,53.1
2022-09-01T10:00:17.207Z,52.7
2022-09-01T10:01:18.109Z,51.8
2022-09-01T10:02:16.486Z,51.2
2022-09-01T10:03:16.912Z,50.6
2022-09-01T10:04:16.708Z,52.0
2022-09-01T10:05:18.302Z,53.1
2022-09-01T10:06:17.949Z,53.0
2022-09-01T10:07:17.447Z,52.8
2022-09-01T10:08:20.488Z,53.5
2022-09-01T10:09:16.974Z,53.0
2022-09-01T10:10:16.965Z,53.4
2022-09-01T10:11:22.212Z,53.6
2022-09-01T10:12:16.946Z,53.7
2022-09-01T10:13:17.453Z,54.0
2022-09-01T10:14:47.786Z,53.6
2022-09-01T10:15:17.382Z,54.3
2022-09-01T10:16:22.304Z,54.3
2022-09-01T10:17:16.869Z,54.0
2022-09-01T10:18:22.306Z,54.4
2022-09-01T10:19:17.259Z,54.9
2022-09-01T10:20:17.196Z,54.8
2022-09-01T10:21:17.183Z,54.9
2022-09-01T10:22:16.466Z,55.2
2022-09-01T10:23:16.908Z,56.0
2022-09-01T10:24:21.342Z,54.8
2022-09-01T10:25:18.199Z,51.8
2022-09-01T10:26:19.081Z,51.3
2022-09-01T10:27:16.542Z,54.7
2022-09-01T10:28:21.495Z,54.5
2022-09-01T10:29:16.788Z,54.7
2022-09-01T10:30:20.386Z,54.6
2022-09-01T10:31:17.100Z,54.8
2022-09-01T10:32:36.607Z,55.6
2022-09-01T10:33:22.416Z,54.7
2022-09-01T10:34:19.918Z,55.1
2022-09-01T10:35:18.573Z,55.2
2022-09-01T10:36:17.024Z,55.0
2022-09-01T10:37:16.486Z,55.5
2022-09-01T10:38:17.698Z,55.0
2022-09-01T10:39:21.784Z,55.9
2022-09-01T10:40:25.581Z,59.9
2022-09-01T10:41:16.495Z,58.5
2022-09-01T10:42:20.338Z,59.6
2022-09-01T10:43:16.819Z,56.6
2022-09-01T10:44:17.268Z,56.9
2022-09-01T10:45:16.644Z,53.4
2022-09-01T10:46:24.316Z,54.7
2022-09-01T10:47:17.243Z,57.9
2022-09-01T10:49:27.678Z,53.8
2022-09-01T10:50:17.656Z,53.9
2022-09-01T10:51:21.947Z,54.1
2022-09-01T10:52:16.846Z,54.2
2022-09-01T10:53:17.590Z,53.6
2022-09-01T10:54:17.007Z,53.9
2022-09-01T10:55:24.840Z,54.4
2022-09-01T10:56:28.260Z,55.0
2022-09-01T10:57:17.384Z,55.0
2022-09-01T10:59:31.419Z,55.1
2022-09-01T11:00:35.871Z,55.4
2022-09-01T11:01:47.695Z,56.0
2022-09-01T11:02:28.622Z,55.9
2022-09-01T11:03:30.096Z,56.2
2022-09-01T11:04:17.251Z,55.2
2022-09-01T11:05:17.247Z,55.9
2022-09-01T11:06:16.735Z,56.2
2022-09-01T11:07:17.846Z,56.3
2022-09-01T11:08:16.654Z,56.4
2022-09-01T11:09:17.083Z,56.3
2022-09-01T11:10:32.904Z,54.5
2022-09-01T11:11:17.214Z,54.5
2022-09-01T11:12:30.155Z,54.8
2022-09-01T11:13:17.748Z,55.1
2022-09-01T11:14:17.158Z,55.0
2022-09-01T11:15:17.233Z,55.1
2022-09-01T11:16:46.368Z,55.0
2022-09-01T11:17:17.232Z,55.5
2022-09-01T11:18:19.467Z,55.5
2022-09-01T11:19:17.128Z,55.8
2022-09-01T11:20:18.262Z,55.8
2022-09-01T11:21:16.744Z,56.4
2022-09-01T11:22:17.044Z,56.3
2022-09-01T11:23:16.675Z,56.6
2022-09-01T11:24:17.084Z,57.1
2022-09-01T11:25:16.549Z,56.8
2022-09-01T11:26:20.557Z,57.8
2022-09-01T11:27:16.988Z,57.7
2022-09-01T11:28:18.254Z,57.8
2022-09-01T11:29:17.383Z,57.9
2022-09-01T11:30:17.223Z,57.6
2022-09-01T11:31:16.821Z,57.7
2022-09-01T11:32:18.850Z,57.8
2022-09-01T11:33:18.132Z,58.5
2022-09-01T11:34:16.630Z,58.5
2022-09-01T11:35:17.091Z,58.1
2022-09-01T11:36:17.198Z,58.3
2022-09-01T11:37:16.906Z,58.0
2022-09-01T11:38:17.361Z,57.7
2022-09-01T11:39:17.569Z,57.9
2022-09-01T11:40:16.572Z,58.2
2022-09-01T11:41:17.018Z,58.8
2022-09-01T11:42:16.747Z,58.3
2022-09-01T11:43:19.410Z,58.5
2022-09-01T11:44:16.840Z,58.5
2022-09-01T11:45:22.203Z,58.4
2022-09-01T11:46:16.827Z,58.4
2022-09-01T11:47:16.660Z,57.9
2022-09-01T11:48:17.152Z,57.8
2022-09-01T11:49:16.609Z,58.0
2022-09-01T11:50:17.076Z,57.5
2022-09-01T11:51:16.531Z,57.9
2022-09-01T11:52:17.167Z,58.0
2022-09-01T11:53:16.689Z,58.1
2022-09-01T11:54:17.198Z,58.2
2022-09-01T11:55:16.614Z,58.2
2022-09-01T11:56:17.070Z,58.3
2022-09-01T11:57:16.535Z,58.5
2022-09-01T11:58:18.203Z,58.2
2022-09-01T11:59:16.619Z,58.6
2022-09-01T12:00:17.903Z,59.0
2022-09-01T12:01:17.330Z,58.5
2022-09-01T12:02:17.391Z,58.9
2022-09-01T12:03:17.172Z,59.1
2022-09-01T12:04:16.733Z,59.0
2022-09-01T12:05:17.193Z,59.2
2022-09-01T12:06:16.651Z,59.1
2022-09-01T12:07:17.072Z,58.8
2022-09-01T12:08:16.498Z,59.2
2022-09-01T12:09:16.919Z,59.5
2022-09-01T12:10:17.350Z,58.8
2022-09-01T12:11:16.782Z,59.0
2022-09-01T12:12:16.463Z,59.1
2022-09-01T12:13:16.969Z,59.0
2022-09-01T12:14:17.388Z,59.8
2022-09-01T12:15:19.331Z,59.5
2022-09-01T12:16:19.558Z,59.8
2022-09-01T12:17:17.080Z,59.6
2022-09-01T12:18:16.531Z,59.7
2022-09-01T12:19:17.066Z,59.5
2022-09-01T12:20:16.515Z,59.4
2022-09-01T12:21:16.987Z,59.2
2022-09-01T12:22:17.293Z,59.0
2022-09-01T12:23:16.964Z,59.2
2022-09-01T12:24:16.418Z,59.0
2022-09-01T12:25:16.842Z,59.0
2022-09-01T12:26:17.279Z,58.9
2022-09-01T12:27:16.707Z,58.9
2022-09-01T12:28:17.791Z,58.7
2022-09-01T12:29:17.267Z,58.0
2022-09-01T12:30:16.727Z,58.5
2022-09-01T12:31:17.207Z,57.9
2022-09-01T12:32:16.908Z,58.0
2022-09-01T12:33:24.621Z,58.0
2022-09-01T12:34:17.195Z,58.2
2022-09-01T12:35:16.666Z,58.0
2022-09-01T12:36:17.151Z,58.0
2022-09-01T12:37:16.607Z,57.8
2022-09-01T12:38:17.051Z,58.0
2022-09-01T12:39:16.493Z,58.1
2022-09-01T12:40:16.985Z,58.6
2022-09-01T12:41:17.386Z,58.7
2022-09-01T12:42:17.029Z,58.7
2022-09-01T12:43:17.260Z,58.5
2022-09-01T12:44:17.196Z,58.2
2022-09-01T12:45:16.661Z,57.7
2022-09-01T12:46:17.798Z,57.5
2022-09-01T12:47:17.283Z,57.7
2022-09-01T12:48:16.726Z,58.0
2022-09-01T12:49:17.199Z,57.7
2022-09-01T12:50:17.221Z,57.8
2022-09-01T12:51:16.701Z,58.0
2022-09-01T12:52:20.490Z,58.5
2022-09-01T12:53:16.939Z,59.2
2022-09-01T12:54:17.379Z,59.2
2022-09-01T12:55:48.133Z,59.2
2022-09-01T12:56:17.241Z,59.4
2022-09-01T12:57:16.665Z,59.8
2022-09-01T12:58:17.114Z,59.7
2022-09-01T12:59:22.099Z,60.0
2022-09-01T13:00:17.163Z,59.3
2022-09-01T13:01:17.307Z,59.7
2022-09-01T13:02:17.074Z,59.6
2022-09-01T13:03:16.616Z,59.0
2022-09-01T13:04:17.075Z,59.2
2022-09-01T13:05:16.531Z,59.2
2022-09-01T13:06:17.062Z,59.8
2022-09-01T13:07:18.036Z,60.0
2022-09-01T13:08:16.531Z,59.6
2022-09-01T13:09:16.950Z,59.1
2022-09-01T13:10:17.538Z,59.4
2022-09-01T13:11:16.955Z,59.6
2022-09-01T13:12:17.343Z,59.8
2022-09-01T13:13:16.902Z,59.6
2022-09-01T13:14:17.384Z,59.5
2022-09-01T13:15:16.843Z,59.0
2022-09-01T13:16:17.544Z,58.8
2022-09-01T13:17:17.019Z,59.4
2022-09-01T13:18:16.605Z,58.1
2022-09-01T13:19:27.938Z,58.2
2022-09-01T13:20:16.548Z,58.0
2022-09-01T13:21:16.962Z,57.0
2022-09-01T13:22:16.553Z,57.1
2022-09-01T13:23:17.088Z,57.0
2022-09-01T13:24:16.556Z,57.2
2022-09-01T13:25:17.442Z,57.3
2022-09-01T13:26:18.961Z,57.2
2022-09-01T13:27:22.029Z,57.0
2022-09-01T13:28:16.855Z,57.2
2022-09-01T13:29:17.388Z,57.0
2022-09-01T13:30:16.848Z,57.2